Time;durP1;ratioP1;P1;durP2;ratioP2;P2;SDS_P1;SDS_P2;PMS_P1;PMS_P2;Temp;Humidity;BMP_temperature;BMP_pressure;BME280_temperature;BME280_humidity;BME280_pressure;Samples;Min_cycle;Max_cycle;Signal;HPM_P1;HPM_P2
2021/07/06 00:00:50;;;;;;;;;;;16.60;99.90;;;;;;5032363;28;19957;-81
2021/07/06 00:03:16;;;;;;;;;;;16.60;99.90;;;;;;5032395;28;19913;-82
2021/07/06 00:05:41;;;;;;;;;;;16.60;99.90;;;;;;5032583;28;19928;-81
2021/07/06 00:08:08;;;;;;;;;;;16.60;99.90;;;;;;5034327;28;19913;-78
2021/07/06 00:10:35;;;;;;;;;;;16.60;99.90;;;;;;5032734;28;20197;-81
2021/07/06 00:13:01;;;;;;;;;;;16.60;99.90;;;;;;5033139;28;19917;-81
2021/07/06 00:15:27;;;;;;;;;;;16.60;99.90;;;;;;5032760;28;19921;-77
2021/07/06 00:17:56;;;;;;;;;;;16.60;99.90;;;;;;5032945;28;19913;-82
2021/07/06 00:20:23;;;;;;;;;;;16.60;99.90;;;;;;5032970;28;19913;-82
2021/07/06 00:22:48;;;;;;;;;;;16.60;99.90;;;;;;5032351;28;19962;-81
2021/07/06 00:25:14;;;;;;;;;;;16.60;99.90;;;;;;5032894;28;20286;-83
2021/07/06 00:27:40;;;;;;;;;;;16.60;99.90;;;;;;5033648;28;19918;-82
2021/07/06 00:30:06;;;;;;;;;;;16.60;99.90;;;;;;5030550;28;19944;-82
2021/07/06 00:32:32;;;;;;;;;;;16.60;99.90;;;;;;5033671;28;20332;-83
2021/07/06 00:34:58;;;;;;;;;;;16.60;99.90;;;;;;5036568;28;19928;-85
2021/07/06 00:37:23;;;;;;;;;;;16.60;99.90;;;;;;5037778;28;19927;-81
2021/07/06 00:39:49;;;;;;;;;;;16.60;99.90;;;;;;5020472;28;19913;-83
2021/07/06 00:42:14;;;;;;;;;;;16.60;99.90;;;;;;5036015;28;19919;-82
2021/07/06 00:44:40;;;;;;;;;;;16.60;99.90;;;;;;5016547;28;19960;-80
2021/07/06 00:47:06;;;;;;;;;;;16.60;99.90;;;;;;5007866;28;19956;-81
2021/07/06 00:49:32;;;;;;;;;;;16.70;99.90;;;;;;5036148;28;19967;-82
2021/07/06 00:51:57;;;;;;;;;;;16.70;99.90;;;;;;5037475;28;19909;-79
2021/07/06 00:54:23;;;;;;;;;;;16.70;99.90;;;;;;5036885;28;19950;-83
2021/07/06 00:56:49;;;;;;;;;;;16.70;99.90;;;;;;5017785;28;19964;-81
2021/07/06 00:59:14;;;;;;;;;;;16.70;99.90;;;;;;5035941;28;19929;-80
2021/07/06 01:01:40;;;;;;;;;;;16.70;99.90;;;;;;5029739;28;19917;-80
2021/07/06 01:04:06;;;;;;;;;;;16.70;99.90;;;;;;5022272;28;19967;-81
2021/07/06 01:06:32;;;;;;;;;;;16.70;99.90;;;;;;5032943;28;19921;-82
2021/07/06 01:08:57;;;;;;;;;;;16.70;99.90;;;;;;5036876;28;19912;-83
2021/07/06 01:11:23;;;;;;;;;;;16.80;99.90;;;;;;5017886;28;19921;-81
2021/07/06 01:13:49;;;;;;;;;;;16.80;99.90;;;;;;5036621;28;19917;-81
2021/07/06 01:16:14;;;;;;;;;;;16.80;99.90;;;;;;5034088;28;19917;-80
2021/07/06 01:18:40;;;;;;;;;;;16.80;99.90;;;;;;5020156;28;19959;-79
2021/07/06 01:21:05;;;;;;;;;;;16.80;99.90;;;;;;5036657;28;19913;-81
2021/07/06 01:23:31;;;;;;;;;;;16.80;99.90;;;;;;5033499;28;19917;-81
2021/07/06 01:25:58;;;;;;;;;;;16.80;99.90;;;;;;5036301;28;19987;-83
2021/07/06 01:28:24;;;;;;;;;;;16.80;99.90;;;;;;5034379;28;19952;-82
2021/07/06 01:30:50;;;;;;;;;;;16.80;99.90;;;;;;5035293;28;19944;-78
2021/07/06 01:33:22;;;;;;;;;;;16.80;99.90;;;;;;5035589;28;20342;-81
2021/07/06 01:35:48;;;;;;;;;;;16.80;99.90;;;;;;5034297;28;19975;-79
2021/07/06 01:38:13;;;;;;;;;;;16.80;99.90;;;;;;5015124;28;19964;-82
2021/07/06 01:40:39;;;;;;;;;;;16.80;99.90;;;;;;5029258;28;19939;-81
2021/07/06 01:43:04;;;;;;;;;;;16.80;99.90;;;;;;5034568;28;19920;-80
2021/07/06 01:45:31;;;;;;;;;;;16.80;99.90;;;;;;5035732;28;20004;-80
2021/07/06 01:47:58;;;;;;;;;;;16.80;99.90;;;;;;5034654;28;19917;-80
2021/07/06 01:50:25;;;;;;;;;;;16.80;99.90;;;;;;5034571;28;19963;-80
2021/07/06 01:52:52;;;;;;;;;;;16.80;99.90;;;;;;5035427;28;19913;-80
2021/07/06 01:55:20;;;;;;;;;;;16.90;99.90;;;;;;5020067;28;19919;-82
2021/07/06 01:57:47;;;;;;;;;;;16.90;99.90;;;;;;5035114;28;19972;-79
2021/07/06 02:00:16;;;;;;;;;;;16.90;99.90;;;;;;5034436;28;20201;-79
2021/07/06 02:02:42;;;;;;;;;;;16.90;99.90;;;;;;5033745;28;19920;-82
2021/07/06 02:05:24;;;;;;;;;;;16.90;99.90;;;;;;5034388;28;19909;-78
2021/07/06 02:07:49;;;;;;;;;;;16.90;99.90;;;;;;5005123;28;19913;-81
2021/07/06 02:10:16;;;;;;;;;;;16.90;99.90;;;;;;5032392;28;20012;-79
2021/07/06 02:12:41;;;;;;;;;;;17.00;99.90;;;;;;5015341;28;19913;-80
2021/07/06 02:15:08;;;;;;;;;;;17.00;99.90;;;;;;5032893;28;19924;-78
2021/07/06 02:17:34;;;;;;;;;;;17.00;99.90;;;;;;5034229;28;19921;-78
2021/07/06 02:19:59;;;;;;;;;;;17.00;99.90;;;;;;5033575;28;19974;-78
2021/07/06 02:22:25;;;;;;;;;;;17.00;99.90;;;;;;5033106;28;20040;-77
2021/07/06 02:24:50;;;;;;;;;;;17.00;99.90;;;;;;5034131;28;19917;-80
2021/07/06 02:27:16;;;;;;;;;;;17.00;99.90;;;;;;5033911;28;19918;-80
2021/07/06 02:29:42;;;;;;;;;;;17.00;99.90;;;;;;5034612;28;20008;-79
2021/07/06 02:32:08;;;;;;;;;;;17.00;99.90;;;;;;5032710;28;19917;-76
2021/07/06 02:34:34;;;;;;;;;;;17.10;99.90;;;;;;5034110;28;19913;-79
2021/07/06 02:36:59;;;;;;;;;;;17.00;99.90;;;;;;5034224;28;20350;-77
2021/07/06 02:39:25;;;;;;;;;;;17.00;99.90;;;;;;5015425;28;19963;-87
2021/07/06 02:41:50;;;;;;;;;;;17.00;99.90;;;;;;5032457;28;19913;-83
2021/07/06 02:44:16;;;;;;;;;;;17.00;99.90;;;;;;5033248;28;20382;-80
2021/07/06 02:46:42;;;;;;;;;;;17.00;99.90;;;;;;5023312;28;19998;-82
2021/07/06 02:49:07;;;;;;;;;;;17.00;99.90;;;;;;5033435;28;19916;-78
2021/07/06 02:51:34;;;;;;;;;;;17.00;99.90;;;;;;5032850;28;19913;-82
2021/07/06 02:54:00;;;;;;;;;;;17.00;99.90;;;;;;5032792;28;19913;-81
2021/07/06 02:56:26;;;;;;;;;;;17.00;99.90;;;;;;5032875;28;19921;-81
2021/07/06 02:58:51;;;;;;;;;;;17.00;99.90;;;;;;5033294;28;19913;-83
2021/07/06 03:01:17;;;;;;;;;;;16.90;99.90;;;;;;5034803;28;20220;-79
2021/07/06 03:03:42;;;;;;;;;;;17.00;99.90;;;;;;5034285;28;19917;-80
2021/07/06 03:06:08;;;;;;;;;;;17.00;99.90;;;;;;5034523;28;19938;-79
2021/07/06 03:08:34;;;;;;;;;;;17.00;99.90;;;;;;5034855;28;19917;-83
2021/07/06 03:11:00;;;;;;;;;;;16.90;99.90;;;;;;5015656;28;19913;-78
2021/07/06 03:13:26;;;;;;;;;;;16.90;99.90;;;;;;5034837;28;19966;-81
2021/07/06 03:15:51;;;;;;;;;;;16.90;99.90;;;;;;5034067;28;19999;-79
2021/07/06 03:18:17;;;;;;;;;;;17.00;99.90;;;;;;5033815;28;19917;-79
2021/07/06 03:20:42;;;;;;;;;;;17.00;99.90;;;;;;5034403;28;19924;-79
2021/07/06 03:23:08;;;;;;;;;;;16.90;99.90;;;;;;5034271;28;19910;-83
2021/07/06 03:25:33;;;;;;;;;;;16.90;99.90;;;;;;5033550;28;20039;-82
2021/07/06 03:28:00;;;;;;;;;;;16.90;99.90;;;;;;5034287;28;19921;-78
2021/07/06 03:30:31;;;;;;;;;;;16.90;99.90;;;;;;5032647;28;20312;-79
2021/07/06 03:32:57;;;;;;;;;;;16.90;99.90;;;;;;5029870;28;19909;-79
2021/07/06 03:35:23;;;;;;;;;;;16.90;99.90;;;;;;5034630;28;20243;-79
2021/07/06 03:37:49;;;;;;;;;;;17.00;99.90;;;;;;5032641;28;19917;-82
2021/07/06 03:40:15;;;;;;;;;;;16.90;99.90;;;;;;5033662;28;19952;-87
2021/07/06 03:42:41;;;;;;;;;;;17.00;99.90;;;;;;5029945;28;19950;-77
2021/07/06 03:45:08;;;;;;;;;;;16.90;99.90;;;;;;5031460;28;19996;-78
2021/07/06 03:47:34;;;;;;;;;;;17.00;99.90;;;;;;5031790;28;19944;-84
2021/07/06 03:49:59;;;;;;;;;;;17.00;99.90;;;;;;5028712;28;20637;-77
2021/07/06 03:52:25;;;;;;;;;;;17.00;99.90;;;;;;5033124;28;20263;-79
2021/07/06 03:54:50;;;;;;;;;;;17.00;99.90;;;;;;5034197;28;20259;-81
2021/07/06 03:57:28;;;;;;;;;;;17.00;99.90;;;;;;5026059;28;19922;-83
2021/07/06 03:59:53;;;;;;;;;;;17.00;99.90;;;;;;5033698;28;19920;-81
2021/07/06 04:02:19;;;;;;;;;;;17.00;99.90;;;;;;5032291;28;19913;-88
2021/07/06 04:04:45;;;;;;;;;;;17.00;99.90;;;;;;5014159;28;19952;-78
2021/07/06 04:07:10;;;;;;;;;;;17.00;99.90;;;;;;5032783;28;19959;-80
2021/07/06 04:09:36;;;;;;;;;;;17.10;99.90;;;;;;5036299;28;19921;-77
2021/07/06 04:12:01;;;;;;;;;;;17.10;99.90;;;;;;5036989;28;20205;-79
2021/07/06 04:14:27;;;;;;;;;;;17.10;99.90;;;;;;5018696;28;19928;-76
2021/07/06 04:16:52;;;;;;;;;;;17.20;99.90;;;;;;5034359;28;19999;-81
2021/07/06 04:19:18;;;;;;;;;;;17.20;99.90;;;;;;5032109;28;19937;-81
2021/07/06 04:21:43;;;;;;;;;;;17.20;99.90;;;;;;5036320;28;19924;-77
2021/07/06 04:24:09;;;;;;;;;;;17.20;99.90;;;;;;5034788;28;19917;-80
2021/07/06 04:26:34;;;;;;;;;;;17.30;99.90;;;;;;5022926;28;19956;-79
2021/07/06 04:29:00;;;;;;;;;;;17.30;99.90;;;;;;5034859;28;19913;-79
2021/07/06 04:31:25;;;;;;;;;;;17.40;99.90;;;;;;5034416;28;20224;-76
2021/07/06 04:33:51;;;;;;;;;;;17.40;99.90;;;;;;5034344;28;20304;-77
2021/07/06 04:36:16;;;;;;;;;;;17.40;99.90;;;;;;5022897;28;20319;-80
2021/07/06 04:38:42;;;;;;;;;;;17.40;99.90;;;;;;5033694;28;19913;-77
2021/07/06 04:41:08;;;;;;;;;;;17.40;99.90;;;;;;5035475;28;19963;-77
2021/07/06 04:43:33;;;;;;;;;;;17.40;99.90;;;;;;5032356;28;19923;-78
2021/07/06 04:45:59;;;;;;;;;;;17.50;99.90;;;;;;5030139;28;19960;-77
2021/07/06 04:48:26;;;;;;;;;;;17.50;99.90;;;;;;5034755;28;19920;-78
2021/07/06 04:50:52;;;;;;;;;;;17.50;99.90;;;;;;5034205;28;19925;-77
2021/07/06 04:53:18;;;;;;;;;;;17.50;99.90;;;;;;5017947;28;19936;-76
2021/07/06 04:55:44;;;;;;;;;;;17.50;99.90;;;;;;5033792;28;19970;-79
2021/07/06 04:58:09;;;;;;;;;;;17.50;99.90;;;;;;5025008;28;20004;-78
2021/07/06 05:00:35;;;;;;;;;;;17.50;99.90;;;;;;5035452;28;20288;-79
2021/07/06 05:03:00;;;;;;;;;;;17.50;99.90;;;;;;5032839;28;20331;-79
2021/07/06 05:05:26;;;;;;;;;;;17.50;99.90;;;;;;5035631;28;19952;-80
2021/07/06 05:07:54;;;;;;;;;;;17.50;99.90;;;;;;5034425;28;19927;-81
2021/07/06 05:10:19;;;;;;;;;;;17.50;99.90;;;;;;5017416;28;20308;-77
2021/07/06 05:12:45;;;;;;;;;;;17.50;99.90;;;;;;5034946;28;20016;-78
2021/07/06 05:15:10;;;;;;;;;;;17.50;99.90;;;;;;5033347;28;20438;-78
2021/07/06 05:17:36;;;;;;;;;;;17.50;99.90;;;;;;5015717;28;20004;-78
2021/07/06 05:20:02;;;;;;;;;;;17.50;99.90;;;;;;5032541;28;19917;-77
2021/07/06 05:22:28;;;;;;;;;;;17.60;99.90;;;;;;5034198;28;19920;-78
2021/07/06 05:24:53;;;;;;;;;;;17.60;99.90;;;;;;5015430;28;20301;-78
2021/07/06 05:27:19;;;;;;;;;;;17.60;99.90;;;;;;5018149;28;19921;-79
2021/07/06 05:29:45;;;;;;;;;;;17.60;99.90;;;;;;5015340;28;19936;-77
2021/07/06 05:32:10;;;;;;;;;;;17.60;99.90;;;;;;5033557;28;20284;-78
2021/07/06 05:34:36;;;;;;;;;;;17.70;99.90;;;;;;5033531;28;19916;-79
2021/07/06 05:37:02;;;;;;;;;;;17.70;99.90;;;;;;5034846;28;19975;-77
2021/07/06 05:39:29;;;;;;;;;;;17.70;99.90;;;;;;5018248;28;19918;-79
2021/07/06 05:41:54;;;;;;;;;;;17.70;99.90;;;;;;5026094;28;19917;-78
2021/07/06 05:44:20;;;;;;;;;;;17.80;99.90;;;;;;5035578;28;19916;-78
2021/07/06 05:46:45;;;;;;;;;;;17.80;99.90;;;;;;5016824;28;19913;-78
2021/07/06 05:49:11;;;;;;;;;;;17.80;99.90;;;;;;5035517;28;20212;-82
2021/07/06 05:51:37;;;;;;;;;;;17.90;99.90;;;;;;5033578;28;20011;-78
2021/07/06 05:54:03;;;;;;;;;;;17.90;99.90;;;;;;5032541;28;20209;-81
2021/07/06 05:56:30;;;;;;;;;;;17.90;99.90;;;;;;5029485;28;19932;-78
2021/07/06 05:58:56;;;;;;;;;;;18.00;99.90;;;;;;5030054;28;20079;-77
2021/07/06 06:01:21;;;;;;;;;;;18.00;99.90;;;;;;5015253;28;19953;-78
2021/07/06 06:03:47;;;;;;;;;;;18.00;99.90;;;;;;5015533;28;20335;-80
2021/07/06 06:06:12;;;;;;;;;;;18.00;99.90;;;;;;5013990;28;19936;-78
2021/07/06 06:08:38;;;;;;;;;;;18.10;99.90;;;;;;5015099;28;19920;-81
2021/07/06 06:11:04;;;;;;;;;;;18.10;99.90;;;;;;5031026;28;20012;-81
2021/07/06 06:13:29;;;;;;;;;;;18.10;99.90;;;;;;5016040;28;19909;-79
2021/07/06 06:15:55;;;;;;;;;;;18.20;99.90;;;;;;5013144;28;20221;-81
2021/07/06 06:18:21;;;;;;;;;;;18.20;99.90;;;;;;5030706;28;19964;-82
2021/07/06 06:20:46;;;;;;;;;;;18.30;99.90;;;;;;5030304;28;20201;-83
2021/07/06 06:23:12;;;;;;;;;;;18.30;99.90;;;;;;5015450;28;20008;-84
2021/07/06 06:25:38;;;;;;;;;;;18.30;99.90;;;;;;5016224;28;19987;-81
2021/07/06 06:28:03;;;;;;;;;;;18.30;99.90;;;;;;5014228;28;19921;-84
2021/07/06 06:30:29;;;;;;;;;;;18.40;99.90;;;;;;5030702;28;19913;-78
2021/07/06 06:32:55;;;;;;;;;;;18.40;99.90;;;;;;5029590;28;19964;-81
2021/07/06 06:35:22;;;;;;;;;;;18.40;99.90;;;;;;5012533;28;19925;-80
2021/07/06 06:37:47;;;;;;;;;;;18.40;99.90;;;;;;5026595;28;19964;-78
2021/07/06 06:40:13;;;;;;;;;;;18.40;99.90;;;;;;5012939;28;19914;-81
2021/07/06 06:42:38;;;;;;;;;;;18.50;99.90;;;;;;5029320;28;20374;-80
2021/07/06 06:45:05;;;;;;;;;;;18.50;99.90;;;;;;5012161;28;19917;-82
2021/07/06 06:47:31;;;;;;;;;;;18.50;99.90;;;;;;5014342;28;19920;-81
2021/07/06 06:49:56;;;;;;;;;;;18.60;99.90;;;;;;5014159;28;20424;-79
2021/07/06 06:52:22;;;;;;;;;;;18.60;99.90;;;;;;5010719;28;19933;-80
2021/07/06 06:54:48;;;;;;;;;;;18.60;99.90;;;;;;5020485;28;19921;-77
2021/07/06 06:57:13;;;;;;;;;;;18.70;99.90;;;;;;5012527;28;19928;-80
2021/07/06 06:59:39;;;;;;;;;;;18.70;99.90;;;;;;5010059;28;19913;-83
2021/07/06 07:02:17;;;;;;;;;;;18.80;99.90;;;;;;5012705;28;19921;-82
2021/07/06 07:04:52;;;;;;;;;;;18.90;99.90;;;;;;5011432;28;19913;-83
2021/07/06 07:07:19;;;;;;;;;;;18.90;99.90;;;;;;5043095;28;19922;-77
2021/07/06 07:09:44;;;;;;;;;;;18.90;99.90;;;;;;5013092;28;19926;-82
2021/07/06 07:12:10;;;;;;;;;;;18.90;99.90;;;;;;5012771;28;19922;-81
2021/07/06 07:14:36;;;;;;;;;;;19.00;99.90;;;;;;5044521;28;19921;-82
2021/07/06 07:17:02;;;;;;;;;;;18.90;99.90;;;;;;5029631;28;19953;-81
2021/07/06 07:19:27;;;;;;;;;;;18.90;99.90;;;;;;5027567;28;20267;-86
2021/07/06 07:21:53;;;;;;;;;;;19.00;99.90;;;;;;5018423;28;19922;-82
2021/07/06 07:24:19;;;;;;;;;;;19.00;99.90;;;;;;5013746;28;19964;-82
2021/07/06 07:26:44;;;;;;;;;;;19.00;99.90;;;;;;5012271;28;19913;-85
2021/07/06 07:29:10;;;;;;;;;;;19.00;99.90;;;;;;5013765;28;19913;-83
2021/07/06 07:31:36;;;;;;;;;;;19.00;99.90;;;;;;5045031;28;20313;-83
2021/07/06 07:34:01;;;;;;;;;;;19.00;99.90;;;;;;5013327;28;19925;-85
2021/07/06 07:36:27;;;;;;;;;;;19.00;99.90;;;;;;5028973;28;19928;-82
2021/07/06 07:38:54;;;;;;;;;;;19.00;99.90;;;;;;5013360;28;20328;-85
2021/07/06 07:41:19;;;;;;;;;;;19.10;99.90;;;;;;5030411;28;19920;-86
2021/07/06 07:43:45;;;;;;;;;;;19.10;99.90;;;;;;5016680;28;19913;-88
2021/07/06 07:46:10;;;;;;;;;;;19.20;99.90;;;;;;5050711;28;19961;-79
2021/07/06 07:48:36;;;;;;;;;;;19.30;99.90;;;;;;5018500;28;19928;-81
2021/07/06 07:51:01;;;;;;;;;;;19.40;99.90;;;;;;5019292;28;19917;-84
2021/07/06 07:53:27;;;;;;;;;;;19.50;99.90;;;;;;5018688;28;19913;-81
2021/07/06 07:55:53;;;;;;;;;;;19.70;99.90;;;;;;5033171;28;19926;-81
2021/07/06 07:58:19;;;;;;;;;;;20.00;99.90;;;;;;5049459;28;19917;-87
2021/07/06 08:00:45;;;;;;;;;;;20.20;99.90;;;;;;5014862;28;20295;-82
2021/07/06 08:03:10;;;;;;;;;;;20.30;99.90;;;;;;5017214;28;19914;-80
2021/07/06 08:05:36;;;;;;;;;;;20.20;99.90;;;;;;5012700;28;20003;-83
2021/07/06 08:08:01;;;;;;;;;;;20.20;99.90;;;;;;5016757;28;19914;-85
2021/07/06 08:10:27;;;;;;;;;;;20.30;99.90;;;;;;5018428;28;19925;-80
2021/07/06 08:12:53;;;;;;;;;;;20.40;99.90;;;;;;5017928;28;19909;-84
2021/07/06 08:15:18;;;;;;;;;;;20.50;99.90;;;;;;5015925;28;19964;-79
2021/07/06 08:17:44;;;;;;;;;;;20.60;99.90;;;;;;5016301;28;19960;-80
2021/07/06 08:20:10;;;;;;;;;;;20.60;99.90;;;;;;5033588;28;19914;-81
2021/07/06 08:22:35;;;;;;;;;;;20.50;99.90;;;;;;5032951;28;19924;-79
2021/07/06 08:25:01;;;;;;;;;;;20.40;99.90;;;;;;5032525;28;20005;-79
2021/07/06 08:27:27;;;;;;;;;;;20.30;99.90;;;;;;5024008;28;19921;-80
2021/07/06 08:29:52;;;;;;;;;;;20.10;99.90;;;;;;5043818;28;19922;-78
2021/07/06 08:32:18;;;;;;;;;;;19.90;99.90;;;;;;5012378;28;19925;-78
2021/07/06 08:34:43;;;;;;;;;;;19.70;99.90;;;;;;5013072;28;19921;-80
2021/07/06 08:37:09;;;;;;;;;;;19.60;99.90;;;;;;5044627;28;19952;-79
2021/07/06 08:39:35;;;;;;;;;;;19.40;99.90;;;;;;5013476;28;19968;-78
2021/07/06 08:42:00;;;;;;;;;;;19.30;99.90;;;;;;5011571;28;19921;-79
2021/07/06 08:44:26;;;;;;;;;;;19.30;99.90;;;;;;5008585;28;19929;-79
2021/07/06 08:46:52;;;;;;;;;;;19.40;99.90;;;;;;5025608;28;20308;-78
2021/07/06 08:49:21;;;;;;;;;;;19.60;99.90;;;;;;5011728;28;19975;-78
2021/07/06 08:51:48;;;;;;;;;;;19.90;99.90;;;;;;5026340;28;19960;-80
2021/07/06 08:54:14;;;;;;;;;;;20.00;99.90;;;;;;5015218;28;20301;-79
2021/07/06 08:56:39;;;;;;;;;;;20.20;99.90;;;;;;5029749;28;19935;-80
2021/07/06 08:59:05;;;;;;;;;;;20.30;99.90;;;;;;5030645;28;19960;-83
2021/07/06 09:01:30;;;;;;;;;;;20.60;99.90;;;;;;5028517;28;19925;-83
2021/07/06 09:04:01;;;;;;;;;;;20.80;99.90;;;;;;5028773;28;20339;-79
2021/07/06 09:06:28;;;;;;;;;;;20.80;99.90;;;;;;5028226;28;19921;-79
2021/07/06 09:09:12;;;;;;;;;;;20.80;99.90;;;;;;5031035;28;20362;-88
2021/07/06 09:11:45;;;;;;;;;;;20.90;99.90;;;;;;5027126;28;19963;-78
2021/07/06 09:14:11;;;;;;;;;;;21.00;99.90;;;;;;5047850;28;19936;-77
2021/07/06 09:16:36;;;;;;;;;;;21.00;99.90;;;;;;5034399;28;20223;-83
2021/07/06 09:19:15;;;;;;;;;;;20.90;99.90;;;;;;5034063;28;19921;-79
2021/07/06 09:21:40;;;;;;;;;;;20.90;99.90;;;;;;5031921;28;19932;-80
2021/07/06 09:24:06;;;;;;;;;;;20.70;99.90;;;;;;5016959;28;19909;-76
2021/07/06 09:26:34;;;;;;;;;;;20.50;99.90;;;;;;5049748;28;19909;-82
2021/07/06 09:29:00;;;;;;;;;;;20.40;99.90;;;;;;5050318;28;19917;-78
2021/07/06 09:31:27;;;;;;;;;;;20.40;99.90;;;;;;5033409;28;19920;-79
2021/07/06 09:33:54;;;;;;;;;;;20.30;99.90;;;;;;5034334;28;20212;-76
2021/07/06 09:36:26;;;;;;;;;;;20.30;99.90;;;;;;5034047;28;19924;-79
2021/07/06 09:39:18;;;;;;;;;;;20.40;99.90;;;;;;5032668;28;19995;-75
2021/07/06 09:42:00;;;;;;;;;;;20.60;99.90;;;;;;5032359;28;20204;-75
2021/07/06 09:44:27;;;;;;;;;;;20.70;99.90;;;;;;5034358;28;19916;-76
2021/07/06 09:46:54;;;;;;;;;;;20.60;99.90;;;;;;5034148;28;19913;-81
2021/07/06 09:49:21;;;;;;;;;;;20.50;99.90;;;;;;5047699;28;20015;-78
2021/07/06 09:51:47;;;;;;;;;;;20.40;99.90;;;;;;5033641;28;19920;-78
2021/07/06 09:54:25;;;;;;;;;;;20.30;99.90;;;;;;5033450;28;19917;-76
2021/07/06 09:56:51;;;;;;;;;;;20.20;99.90;;;;;;5030301;28;19917;-77
2021/07/06 09:59:17;;;;;;;;;;;20.10;99.90;;;;;;5048448;28;19924;-78
2021/07/06 10:01:53;;;;;;;;;;;20.10;99.90;;;;;;5034457;28;19914;-76
2021/07/06 10:04:20;;;;;;;;;;;20.00;99.90;;;;;;5014755;28;19909;-77
2021/07/06 10:06:46;;;;;;;;;;;19.90;99.90;;;;;;5035557;28;19923;-77
2021/07/06 10:09:12;;;;;;;;;;;19.80;99.90;;;;;;5035009;28;19999;-78
2021/07/06 10:11:38;;;;;;;;;;;19.80;99.90;;;;;;5033060;28;20235;-75
2021/07/06 10:14:04;;;;;;;;;;;19.80;99.90;;;;;;5034314;28;19917;-76
2021/07/06 10:16:29;;;;;;;;;;;19.80;99.90;;;;;;5031152;28;19983;-76
2021/07/06 10:18:56;;;;;;;;;;;19.70;99.90;;;;;;5031789;28;20815;-78
2021/07/06 10:21:22;;;;;;;;;;;19.60;99.90;;;;;;5030480;28;19971;-77
2021/07/06 10:23:50;;;;;;;;;;;19.60;99.90;;;;;;5049372;28;19960;-82
2021/07/06 10:26:20;;;;;;;;;;;19.50;99.90;;;;;;5033244;28;19921;-75
2021/07/06 10:28:50;;;;;;;;;;;19.60;99.90;;;;;;5016910;28;19913;-74
2021/07/06 10:31:17;;;;;;;;;;;19.70;99.90;;;;;;5031279;28;20039;-78
2021/07/06 10:33:46;;;;;;;;;;;19.80;99.90;;;;;;5029589;28;19921;-77
2021/07/06 10:36:13;;;;;;;;;;;19.90;99.90;;;;;;5033194;28;19921;-78
2021/07/06 10:38:42;;;;;;;;;;;19.90;99.90;;;;;;5032997;28;19956;-75
2021/07/06 10:41:09;;;;;;;;;;;19.90;99.90;;;;;;5034011;28;20223;-77
2021/07/06 10:43:38;;;;;;;;;;;19.90;99.90;;;;;;5014040;28;19913;-76
2021/07/06 10:46:13;;;;;;;;;;;19.80;99.90;;;;;;5034411;28;19909;-76
2021/07/06 10:48:43;;;;;;;;;;;19.90;99.90;;;;;;5022755;28;19913;-78
2021/07/06 10:51:08;;;;;;;;;;;20.00;99.90;;;;;;5034577;28;20290;-74
2021/07/06 10:53:34;;;;;;;;;;;19.90;99.90;;;;;;5034866;28;19917;-75
2021/07/06 10:56:05;;;;;;;;;;;19.90;99.90;;;;;;5011025;28;19929;-75
2021/07/06 10:58:47;;;;;;;;;;;20.00;99.90;;;;;;4995210;28;20313;-77
2021/07/06 11:01:31;;;;;;;;;;;20.30;99.90;;;;;;4993395;28;20309;-75
2021/07/06 11:03:57;;;;;;;;;;;20.50;99.90;;;;;;5006722;28;19918;-79
2021/07/06 11:06:46;;;;;;;;;;;20.70;99.90;;;;;;4994315;28;19917;-77
2021/07/06 11:09:17;;;;;;;;;;;20.80;99.90;;;;;;5005463;28;19949;-77
2021/07/06 11:11:43;;;;;;;;;;;20.80;99.90;;;;;;5010122;28;19949;-77
2021/07/06 11:14:18;;;;;;;;;;;20.60;99.90;;;;;;4994686;28;20321;-75
2021/07/06 11:16:54;;;;;;;;;;;20.50;99.90;;;;;;5009263;28;19918;-76
2021/07/06 11:19:36;;;;;;;;;;;20.50;99.90;;;;;;4992933;28;19914;-76
2021/07/06 11:22:09;;;;;;;;;;;20.60;99.90;;;;;;4993953;28;19920;-74
2021/07/06 11:24:48;;;;;;;;;;;20.60;99.90;;;;;;4993240;28;20225;-76
2021/07/06 11:27:34;;;;;;;;;;;20.70;99.90;;;;;;4993172;28;19917;-76
2021/07/06 11:30:19;;;;;;;;;;;20.50;99.90;;;;;;4993375;28;19929;-75
2021/07/06 11:33:01;;;;;;;;;;;20.30;99.90;;;;;;4993557;28;19960;-77
2021/07/06 11:35:27;;;;;;;;;;;20.10;99.90;;;;;;4988064;28;19921;-78
2021/07/06 11:37:53;;;;;;;;;;;20.10;99.90;;;;;;4994752;28;19917;-76
2021/07/06 11:40:18;;;;;;;;;;;20.10;99.90;;;;;;5008545;28;19918;-76
2021/07/06 11:42:44;;;;;;;;;;;20.30;99.90;;;;;;4987016;28;19918;-73
2021/07/06 11:45:10;;;;;;;;;;;20.30;99.90;;;;;;5022675;28;19924;-78
2021/07/06 11:47:35;;;;;;;;;;;20.40;99.90;;;;;;4987956;28;20293;-77
2021/07/06 11:50:01;;;;;;;;;;;20.40;99.90;;;;;;5008576;28;19949;-75
2021/07/06 11:52:27;;;;;;;;;;;20.30;99.90;;;;;;4993319;28;19953;-75
2021/07/06 11:54:52;;;;;;;;;;;20.20;99.90;;;;;;5001745;28;19925;-74
2021/07/06 11:57:18;;;;;;;;;;;20.10;99.90;;;;;;5028918;28;19928;-76
2021/07/06 11:59:43;;;;;;;;;;;19.90;99.90;;;;;;5014050;28;19921;-75
2021/07/06 12:02:12;;;;;;;;;;;19.80;99.90;;;;;;5045118;28;19984;-82
2021/07/06 12:04:38;;;;;;;;;;;19.70;99.90;;;;;;5027235;28;19917;-76
2021/07/06 12:07:11;;;;;;;;;;;19.60;99.90;;;;;;5013721;28;19917;-78
2021/07/06 12:09:37;;;;;;;;;;;19.60;99.90;;;;;;5012425;28;19948;-75
2021/07/06 12:12:15;;;;;;;;;;;19.50;99.90;;;;;;5012290;28;19913;-79
2021/07/06 12:14:45;;;;;;;;;;;19.40;99.90;;;;;;5013331;28;19913;-74
2021/07/06 12:17:23;;;;;;;;;;;19.40;99.90;;;;;;5010547;28;19918;-78
2021/07/06 12:19:48;;;;;;;;;;;19.40;99.90;;;;;;5008113;28;19918;-74
2021/07/06 12:22:17;;;;;;;;;;;19.60;99.90;;;;;;5042221;28;19917;-77
2021/07/06 12:24:43;;;;;;;;;;;19.80;99.90;;;;;;5011947;28;20327;-75
2021/07/06 12:27:12;;;;;;;;;;;20.00;99.90;;;;;;5013157;28;19917;-74
2021/07/06 12:29:38;;;;;;;;;;;20.20;99.90;;;;;;5001232;28;19922;-77
2021/07/06 12:32:13;;;;;;;;;;;20.30;99.90;;;;;;5013309;28;19921;-74
2021/07/06 12:34:40;;;;;;;;;;;20.30;99.90;;;;;;5011653;28;19921;-74
2021/07/06 12:37:09;;;;;;;;;;;20.10;99.90;;;;;;5012793;28;19925;-74
2021/07/06 12:39:36;;;;;;;;;;;20.00;99.90;;;;;;5012133;28;19980;-78
2021/07/06 12:42:02;;;;;;;;;;;20.00;99.90;;;;;;5011655;28;20540;-76
2021/07/06 12:44:44;;;;;;;;;;;20.20;99.90;;;;;;5010504;28;19957;-75
2021/07/06 12:47:17;;;;;;;;;;;20.40;99.90;;;;;;5025813;28;19948;-74
2021/07/06 12:49:56;;;;;;;;;;;20.50;99.90;;;;;;5009961;28;19952;-80
2021/07/06 12:52:26;;;;;;;;;;;20.40;99.90;;;;;;5010548;28;20586;-79
2021/07/06 12:54:52;;;;;;;;;;;20.40;99.90;;;;;;5018810;28;19928;-86
2021/07/06 12:57:36;;;;;;;;;;;20.20;99.90;;;;;;5012365;28;20220;-73
2021/07/06 13:00:08;;;;;;;;;;;20.10;99.90;;;;;;5029393;28;19924;-74
2021/07/06 13:02:34;;;;;;;;;;;19.90;99.90;;;;;;5028282;28;19921;-74
2021/07/06 13:05:01;;;;;;;;;;;19.80;99.90;;;;;;5026670;28;20013;-73
2021/07/06 13:07:28;;;;;;;;;;;19.80;99.90;;;;;;5029250;28;19932;-74
2021/07/06 13:10:05;;;;;;;;;;;19.90;99.90;;;;;;5029176;28;19921;-73
2021/07/06 13:12:31;;;;;;;;;;;19.90;99.90;;;;;;5012209;28;19944;-75
2021/07/06 13:14:58;;;;;;;;;;;19.90;99.90;;;;;;5029192;28;20312;-75
2021/07/06 13:17:24;;;;;;;;;;;19.80;99.90;;;;;;5028878;28;19917;-74
2021/07/06 13:20:05;;;;;;;;;;;19.80;99.90;;;;;;5030433;28;19917;-75
2021/07/06 13:22:30;;;;;;;;;;;19.80;99.90;;;;;;5030556;28;20000;-74
2021/07/06 13:24:58;;;;;;;;;;;19.80;99.90;;;;;;5030291;28;20063;-74
2021/07/06 13:27:25;;;;;;;;;;;19.80;99.90;;;;;;5029932;28;19953;-73
2021/07/06 13:29:50;;;;;;;;;;;19.80;99.90;;;;;;5028736;28;20271;-74
2021/07/06 13:32:16;;;;;;;;;;;19.80;99.90;;;;;;5028805;28;19967;-74
2021/07/06 13:34:41;;;;;;;;;;;19.70;99.90;;;;;;5029417;28;19921;-75
2021/07/06 13:37:10;;;;;;;;;;;19.60;99.90;;;;;;5028406;28;20359;-74
2021/07/06 13:39:35;;;;;;;;;;;19.80;99.90;;;;;;5030049;28;20308;-75
2021/07/06 13:42:01;;;;;;;;;;;20.00;99.90;;;;;;5030723;28;19920;-75
2021/07/06 13:44:27;;;;;;;;;;;20.10;99.90;;;;;;5030367;28;19987;-74
2021/07/06 13:46:54;;;;;;;;;;;20.10;99.90;;;;;;5030489;28;19928;-77
2021/07/06 13:49:20;;;;;;;;;;;20.00;99.90;;;;;;5029629;28;19913;-75
2021/07/06 13:51:46;;;;;;;;;;;20.00;99.90;;;;;;5030416;28;20007;-82
2021/07/06 13:54:13;;;;;;;;;;;19.90;99.90;;;;;;5030211;28;20328;-74
2021/07/06 13:56:39;;;;;;;;;;;19.80;99.90;;;;;;5030708;28;19925;-75
2021/07/06 13:59:05;;;;;;;;;;;19.80;99.90;;;;;;5028130;28;19920;-76
2021/07/06 14:01:30;;;;;;;;;;;19.80;99.90;;;;;;5029495;28;19925;-75
2021/07/06 14:03:56;;;;;;;;;;;20.00;99.90;;;;;;5027700;28;20278;-75
2021/07/06 14:06:23;;;;;;;;;;;20.20;99.90;;;;;;5028102;28;19948;-75
2021/07/06 14:08:49;;;;;;;;;;;20.30;99.90;;;;;;5045226;28;19966;-74
2021/07/06 14:11:15;;;;;;;;;;;20.10;99.90;;;;;;5029995;28;19921;-75
2021/07/06 14:13:41;;;;;;;;;;;20.00;99.90;;;;;;5028907;28;19970;-74
2021/07/06 14:16:06;;;;;;;;;;;19.70;99.90;;;;;;5044307;28;20497;-79